Time;durP1;ratioP1;P1;durP2;ratioP2;P2;SDS_P1;SDS_P2;PMS_P1;PMS_P2;Temp;Humidity;BMP_temperature;BMP_pressure;BME280_temperature;BME280_humidity;BME280_pressure;Samples;Min_cycle;Max_cycle;Signal;HPM_P1;HPM_P2
2021/10/17 00:01:18;;;;;;;19.95;10.27;;;;;;;3.48;85.84;101855.91;5005815;28;20079;-74
2021/10/17 00:03:44;;;;;;;24.70;10.15;;;;;;;3.47;85.49;101850.84;5005244;28;20053;-73
2021/10/17 00:06:09;;;;;;;20.92;10.38;;;;;;;3.43;85.48;101852.75;5005135;28;20411;-74
2021/10/17 00:08:35;;;;;;;21.90;11.15;;;;;;;3.41;85.62;101853.72;5006584;28;20030;-73
2021/10/17 00:11:00;;;;;;;23.85;10.80;;;;;;;3.40;85.51;101857.22;5006195;28;20105;-74
2021/10/17 00:13:26;;;;;;;22.00;10.77;;;;;;;3.40;85.73;101850.34;5004941;28;20088;-74
2021/10/17 00:15:51;;;;;;;23.67;10.52;;;;;;;3.43;85.65;101851.94;5014952;28;20605;-73
2021/10/17 00:18:19;;;;;;;25.33;10.20;;;;;;;3.44;85.85;101856.16;5005547;28;20395;-73
2021/10/17 00:20:44;;;;;;;22.98;10.57;;;;;;;3.44;85.76;101849.28;5019594;28;20034;-73
2021/10/17 00:23:10;;;;;;;21.08;9.55;;;;;;;3.42;85.87;101863.09;5008998;28;20037;-73
2021/10/17 00:25:36;;;;;;;18.52;9.35;;;;;;;3.34;85.80;101858.38;4993620;28;20033;-73
2021/10/17 00:28:01;;;;;;;18.77;11.02;;;;;;;3.30;85.69;101873.09;5009730;28;20466;-73
2021/10/17 00:30:33;;;;;;;22.25;8.93;;;;;;;3.26;85.62;101875.94;5003661;28;20510;-73
2021/10/17 00:32:58;;;;;;;18.75;9.63;;;;;;;3.23;85.87;101874.34;5008249;28;20042;-73
2021/10/17 00:35:24;;;;;;;22.65;9.88;;;;;;;3.24;85.92;101878.56;5002559;28;20060;-73
2021/10/17 00:37:49;;;;;;;21.13;9.60;;;;;;;3.25;85.95;101869.94;5024370;28;20034;-74
2021/10/17 00:40:17;;;;;;;16.70;8.88;;;;;;;3.28;85.94;101868.97;5009427;28;20030;-73
2021/10/17 00:42:45;;;;;;;24.88;10.20;;;;;;;3.29;85.38;101865.50;5012888;28;20026;-73
2021/10/17 00:45:14;;;;;;;21.08;9.65;;;;;;;3.33;85.59;101866.16;5009962;28;20148;-73
2021/10/17 00:47:39;;;;;;;18.90;9.43;;;;;;;3.31;85.52;101861.09;5011945;28;20064;-73
2021/10/17 00:50:08;;;;;;;20.70;9.20;;;;;;;3.26;85.30;101869.06;5024912;28;20069;-73
2021/10/17 00:52:35;;;;;;;22.98;10.75;;;;;;;3.21;85.56;101865.09;5013516;28;20131;-73
2021/10/17 00:55:01;;;;;;;17.98;8.95;;;;;;;3.18;85.49;101865.25;5012655;28;20323;-73
2021/10/17 00:57:27;;;;;;;18.30;9.75;;;;;;;3.12;85.83;101866.41;5013865;28;20302;-73
2021/10/17 00:59:52;;;;;;;16.75;9.07;;;;;;;3.07;85.84;101874.34;5011498;28;20474;-73
2021/10/17 01:02:18;;;;;;;18.88;8.68;;;;;;;3.05;86.01;101876.16;5013044;28;20018;-73
2021/10/17 01:04:44;;;;;;;19.75;9.15;;;;;;;3.02;86.16;101878.88;4998312;28;20402;-73
2021/10/17 01:07:10;;;;;;;23.55;8.98;;;;;;;3.04;85.89;101871.09;5009335;28;20124;-73
2021/10/17 01:09:37;;;;;;;19.98;9.20;;;;;;;3.05;86.04;101872.75;5011393;28;20539;-73
2021/10/17 01:12:06;;;;;;;20.05;9.30;;;;;;;3.05;85.88;101871.03;5010110;28;20034;-73
2021/10/17 01:14:32;;;;;;;18.58;9.13;;;;;;;3.05;85.80;101870.19;4992240;28;20026;-73
2021/10/17 01:16:58;;;;;;;24.23;9.80;;;;;;;3.04;85.84;101865.97;5008739;28;20037;-73
2021/10/17 01:19:24;;;;;;;21.58;9.85;;;;;;;3.00;85.35;101874.75;5009275;28;20041;-73
2021/10/17 01:21:57;;;;;;;23.02;8.77;;;;;;;2.98;85.98;101877.38;5025344;28;20034;-73
2021/10/17 01:24:23;;;;;;;18.77;8.30;;;;;;;2.99;85.69;101873.06;4992252;28;20045;-73
2021/10/17 01:26:48;;;;;;;19.90;8.43;;;;;;;2.98;85.55;101872.25;5008477;28;20037;-73
2021/10/17 01:29:15;;;;;;;17.00;8.73;;;;;;;2.94;85.71;101875.88;5021409;28;20029;-73
2021/10/17 01:31:46;;;;;;;16.48;8.95;;;;;;;2.95;85.89;101876.72;5008419;28;20037;-73
2021/10/17 01:34:13;;;;;;;16.67;9.10;;;;;;;2.94;85.77;101863.09;5029233;28;20030;-73
2021/10/17 01:36:42;;;;;;;17.80;8.43;;;;;;;2.93;85.69;101867.34;5010255;28;20026;-73
2021/10/17 01:39:10;;;;;;;21.60;8.88;;;;;;;2.91;85.58;101869.19;5028842;28;20445;-73
2021/10/17 01:41:35;;;;;;;18.45;9.13;;;;;;;2.88;85.58;101866.78;5008856;28;20026;-72
2021/10/17 01:44:06;;;;;;;17.70;8.20;;;;;;;2.83;85.40;101866.19;5020714;28;20065;-73
2021/10/17 01:46:35;;;;;;;18.88;8.85;;;;;;;2.81;85.83;101862.06;5025398;28;20062;-72
2021/10/17 01:49:01;;;;;;;21.02;8.98;;;;;;;2.79;85.67;101866.41;5006924;28;20089;-73
2021/10/17 01:51:26;;;;;;;18.15;8.15;;;;;;;2.78;85.77;101865.59;5004720;28;20034;-73
2021/10/17 01:53:52;;;;;;;25.25;8.57;;;;;;;2.77;85.69;101858.84;5008796;28;20036;-73
2021/10/17 01:56:17;;;;;;;20.02;9.55;;;;;;;2.77;85.92;101853.72;5007192;28;20100;-73
2021/10/17 01:58:43;;;;;;;17.58;7.88;;;;;;;2.78;85.77;101864.78;5020656;28;20026;-73
2021/10/17 02:01:10;;;;;;;30.73;9.15;;;;;;;2.77;85.38;101857.97;5009301;28;20033;-72
2021/10/17 02:03:37;;;;;;;18.90;8.20;;;;;;;2.77;85.66;101863.97;5037240;28;20553;-72
2021/10/17 02:06:03;;;;;;;18.50;8.65;;;;;;;2.76;85.58;101852.03;5019874;28;20029;-73
2021/10/17 02:08:29;;;;;;;19.08;8.50;;;;;;;2.73;85.60;101849.63;5008931;28;20029;-73
2021/10/17 02:10:56;;;;;;;25.92;9.93;;;;;;;2.69;85.94;101850.69;5012649;28;20057;-73
2021/10/17 02:13:22;;;;;;;14.38;7.90;;;;;;;2.68;86.00;101851.63;4994178;28;20653;-73
2021/10/17 02:15:47;;;;;;;19.52;8.10;;;;;;;2.68;86.07;101849.88;5018509;28;20063;-73
2021/10/17 02:18:13;;;;;;;18.38;8.65;;;;;;;2.69;85.77;101843.00;5031182;28;20061;-73
2021/10/17 02:20:45;;;;;;;21.00;8.35;;;;;;;2.68;85.67;101851.63;5004588;28;20041;-73
2021/10/17 02:23:13;;;;;;;20.30;7.65;;;;;;;2.65;85.63;101846.66;5006842;28;20056;-73
2021/10/17 02:25:38;;;;;;;17.63;8.35;;;;;;;2.63;85.73;101840.78;5017535;28;20495;-72
2021/10/17 02:28:04;;;;;;;21.63;8.40;;;;;;;2.60;85.85;101836.66;5026165;28;20525;-73
2021/10/17 02:30:34;;;;;;;19.23;8.20;;;;;;;2.59;85.87;101839.28;5010503;28;20081;-73
2021/10/17 02:33:17;;;;;;;15.20;8.30;;;;;;;2.59;85.94;101840.09;5021244;28;20026;-73
2021/10/17 02:35:43;;;;;;;18.42;7.68;;;;;;;2.61;86.08;101840.03;5003143;28;20398;-73
2021/10/17 02:38:09;;;;;;;19.73;8.20;;;;;;;2.63;86.26;101831.34;4990557;28;20030;-73
2021/10/17 02:40:35;;;;;;;21.25;8.40;;;;;;;2.61;86.11;101830.59;5013868;28;20034;-73
2021/10/17 02:43:02;;;;;;;20.35;8.70;;;;;;;2.60;85.95;101839.22;5009695;28;20228;-73
2021/10/17 02:45:28;;;;;;;20.77;8.85;;;;;;;2.57;86.14;101836.78;5000915;28;20065;-73
2021/10/17 02:47:54;;;;;;;17.02;7.85;;;;;;;2.51;86.05;101829.44;5012130;28;20026;-73
2021/10/17 02:50:20;;;;;;;20.27;7.47;;;;;;;2.47;86.10;101830.50;5009116;28;20402;-73
2021/10/17 02:52:48;;;;;;;15.75;7.93;;;;;;;2.43;86.17;101827.28;5012694;28;20395;-73
2021/10/17 02:55:16;;;;;;;21.83;9.07;;;;;;;2.42;86.24;101837.59;5008535;28;20022;-73
2021/10/17 02:57:41;;;;;;;14.13;7.65;;;;;;;2.41;86.44;101825.69;5006337;28;20029;-73
2021/10/17 03:00:08;;;;;;;18.13;8.15;;;;;;;2.41;86.69;101823.97;5009452;28;20034;-73
2021/10/17 03:02:33;;;;;;;19.00;9.73;;;;;;;2.38;86.97;101831.78;5007321;28;20060;-73
2021/10/17 03:04:59;;;;;;;17.08;8.25;;;;;;;2.35;86.80;101837.06;5028486;28;20494;-73
2021/10/17 03:07:25;;;;;;;19.67;7.95;;;;;;;2.33;87.16;101823.50;5009454;28;20040;-73
2021/10/17 03:10:04;;;;;;;17.90;7.72;;;;;;;2.36;87.06;101822.53;5010280;28;20025;-73
2021/10/17 03:12:31;;;;;;;17.65;8.43;;;;;;;2.38;87.36;101818.16;5010643;28;20053;-73
2021/10/17 03:14:58;;;;;;;22.80;9.57;;;;;;;2.39;86.84;101830.88;4990056;28;20111;-73
2021/10/17 03:17:25;;;;;;;19.15;8.20;;;;;;;2.40;87.04;101824.84;5010068;28;20034;-73
2021/10/17 03:19:51;;;;;;;19.15;8.30;;;;;;;2.41;87.41;101826.53;5006838;28;20045;-73
2021/10/17 03:22:17;;;;;;;19.65;8.75;;;;;;;2.44;87.34;101820.41;5005610;28;20026;-73
2021/10/17 03:24:42;;;;;;;18.10;8.32;;;;;;;2.40;87.18;101814.63;5008496;28;20057;-73
2021/10/17 03:27:08;;;;;;;15.23;7.95;;;;;;;2.38;87.25;101811.31;4994441;28;20609;-73
2021/10/17 03:29:35;;;;;;;15.82;7.80;;;;;;;2.39;87.56;101812.13;5007262;28;20088;-73
2021/10/17 03:32:03;;;;;;;17.27;7.85;;;;;;;2.40;87.74;101813.78;5007331;28;20230;-73
2021/10/17 03:34:30;;;;;;;31.20;8.85;;;;;;;2.42;87.40;101817.09;5016603;28;20041;-73
2021/10/17 03:36:56;;;;;;;23.35;8.43;;;;;;;2.41;87.37;101811.16;5006247;28;20030;-73
2021/10/17 03:39:21;;;;;;;20.77;9.38;;;;;;;2.43;87.25;101814.47;5007406;28;20029;-73
2021/10/17 03:41:47;;;;;;;25.67;10.20;;;;;;;2.40;87.20;101813.78;5027770;28;20045;-73
2021/10/17 03:44:13;;;;;;;17.60;9.15;;;;;;;2.34;87.06;101805.50;5023426;28;20033;-73
2021/10/17 03:46:38;;;;;;;18.88;8.20;;;;;;;2.30;87.08;101813.44;5008018;28;20423;-73
2021/10/17 03:49:04;;;;;;;18.55;8.25;;;;;;;2.30;87.48;101805.75;5010795;28;20402;-73
2021/10/17 03:51:30;;;;;;;20.23;8.00;;;;;;;2.31;87.37;101803.09;5004102;28;20164;-73
2021/10/17 03:54:00;;;;;;;20.05;8.27;;;;;;;2.33;87.65;101797.91;5006118;28;20466;-73
2021/10/17 03:56:25;;;;;;;18.02;8.80;;;;;;;2.32;87.87;101803.94;5006301;28;20083;-73
2021/10/17 03:58:53;;;;;;;20.20;9.00;;;;;;;2.31;87.86;101800.53;5002284;28;20057;-73
2021/10/17 04:01:18;;;;;;;17.67;9.35;;;;;;;2.33;88.16;101803.03;5011981;28;20030;-74
2021/10/17 04:03:44;;;;;;;15.82;8.77;;;;;;;2.33;88.17;101798.72;4994968;28;20037;-73
2021/10/17 04:06:10;;;;;;;18.15;8.93;;;;;;;2.35;88.39;101796.09;4996664;28;20113;-73
2021/10/17 04:08:36;;;;;;;19.95;9.00;;;;;;;2.37;88.25;101794.28;5009085;28;20080;-73
2021/10/17 04:11:02;;;;;;;20.40;8.98;;;;;;;2.39;88.49;101807.00;5013333;28;20034;-73
2021/10/17 04:13:28;;;;;;;20.85;9.23;;;;;;;2.38;88.64;101793.38;5009685;28;20017;-73
2021/10/17 04:15:54;;;;;;;16.85;8.90;;;;;;;2.40;88.79;101798.44;5009597;28;20772;-73
2021/10/17 04:18:19;;;;;;;17.73;8.85;;;;;;;2.40;88.75;101806.13;5011393;28;20030;-74
2021/10/17 04:20:45;;;;;;;25.13;10.13;;;;;;;2.39;88.92;101802.69;5014434;28;20044;-73
2021/10/17 04:23:11;;;;;;;23.70;9.70;;;;;;;2.40;88.86;101799.25;5007221;28;20394;-73
2021/10/17 04:25:36;;;;;;;22.55;9.23;;;;;;;2.42;89.09;101796.63;5002630;28;20033;-73
2021/10/17 04:28:05;;;;;;;21.88;9.20;;;;;;;2.42;89.08;101797.44;5005059;28;20454;-73
2021/10/17 04:30:31;;;;;;;22.80;10.57;;;;;;;2.45;89.07;101799.00;5011983;28;20033;-73
2021/10/17 04:32:56;;;;;;;19.38;9.60;;;;;;;2.47;89.26;101802.34;5011645;28;20034;-74
2021/10/17 04:35:22;;;;;;;27.02;10.48;;;;;;;2.48;89.59;101809.09;5005997;28;20072;-74
2021/10/17 04:37:47;;;;;;;24.38;10.65;;;;;;;2.47;89.64;101799.78;5027142;28;20056;-74
2021/10/17 04:40:14;;;;;;;18.00;9.60;;;;;;;2.48;89.97;101798.84;5005188;28;20026;-74
2021/10/17 04:42:41;;;;;;;21.80;10.32;;;;;;;2.50;90.06;101794.47;5011702;28;20101;-74
2021/10/17 04:45:07;;;;;;;24.88;9.95;;;;;;;2.52;90.32;101793.50;5014691;28;20111;-75
2021/10/17 04:47:33;;;;;;;23.75;11.93;;;;;;;2.56;90.24;101795.91;5004125;28;20113;-74
2021/10/17 04:49:59;;;;;;;26.50;11.40;;;;;;;2.58;90.62;101801.75;5007632;28;20088;-74
2021/10/17 04:52:24;;;;;;;26.63;11.07;;;;;;;2.59;91.20;101801.69;5007426;28;20045;-74
2021/10/17 04:54:50;;;;;;;28.20;10.95;;;;;;;2.61;91.13;101799.88;5004201;28;20041;-74
2021/10/17 04:57:18;;;;;;;19.58;10.68;;;;;;;2.64;91.35;101802.28;5004448;28;20415;-75
2021/10/17 04:59:46;;;;;;;24.33;11.40;;;;;;;2.67;91.44;101804.66;5005624;28;20088;-74
2021/10/17 05:02:12;;;;;;;24.65;10.65;;;;;;;2.69;91.95;101805.44;5005037;28;20391;-75
2021/10/17 05:04:38;;;;;;;28.52;12.23;;;;;;;2.75;91.76;101803.44;4990033;28;20026;-74
2021/10/17 05:07:04;;;;;;;25.02;12.27;;;;;;;2.78;91.94;101804.13;4990836;28;20108;-74
2021/10/17 05:09:30;;;;;;;28.27;12.82;;;;;;;2.78;92.41;101804.13;5000692;28;20522;-74
2021/10/17 05:11:56;;;;;;;24.83;12.45;;;;;;;2.78;92.79;101799.00;5009587;28;20038;-74
2021/10/17 05:14:22;;;;;;;30.42;12.13;;;;;;;2.83;92.58;101793.63;5009516;28;20538;-74
2021/10/17 05:16:48;;;;;;;28.35;12.35;;;;;;;2.84;92.99;101801.22;4995297;28;20033;-74
2021/10/17 05:19:14;;;;;;;31.98;13.27;;;;;;;2.91;93.37;101804.31;5012670;28;20034;-73
2021/10/17 05:21:41;;;;;;;43.67;14.68;;;;;;;3.04;93.60;101799.34;5023552;28;21382;-73
2021/10/17 05:24:07;;;;;;;40.97;15.07;;;;;;;3.06;93.41;101798.34;5013565;28;20087;-73
2021/10/17 05:26:33;;;;;;;32.17;13.82;;;;;;;3.03;93.66;101803.66;5011034;28;20029;-74
2021/10/17 05:28:59;;;;;;;34.58;15.00;;;;;;;3.07;93.93;101794.88;4995321;28;20084;-75
2021/10/17 05:31:25;;;;;;;37.13;14.05;;;;;;;3.05;94.21;101795.88;5010684;28;20030;-74
2021/10/17 05:33:51;;;;;;;29.83;14.52;;;;;;;3.08;94.11;101799.09;4996567;28;20050;-74
2021/10/17 05:36:18;;;;;;;52.10;14.85;;;;;;;3.37;94.00;101800.97;5009167;28;20057;-73
2021/10/17 05:38:48;;;;;;;44.72;14.65;;;;;;;3.28;93.80;101797.19;5021676;28;20057;-74
2021/10/17 05:41:14;;;;;;;39.63;13.77;;;;;;;3.26;94.16;101792.16;4996786;28;20752;-74
2021/10/17 05:43:40;;;;;;;31.13;13.95;;;;;;;3.23;94.16;101797.44;5004840;28;20517;-74
2021/10/17 05:46:06;;;;;;;35.47;14.38;;;;;;;3.20;94.62;101800.19;5009665;28;20037;-74
2021/10/17 05:48:32;;;;;;;32.00;14.23;;;;;;;3.23;94.45;101804.31;4994661;28;20068;-74
2021/10/17 05:50:58;;;;;;;35.47;14.68;;;;;;;3.29;94.44;101803.97;5027934;28;20064;-74
2021/10/17 05:53:24;;;;;;;27.85;14.02;;;;;;;3.29;94.35;101803.97;5009508;28;20026;-74
2021/10/17 05:55:50;;;;;;;36.70;14.65;;;;;;;3.34;94.54;101798.59;5014356;28;20026;-74
2021/10/17 05:58:16;;;;;;;30.65;13.43;;;;;;;3.35;94.30;101806.19;5026577;28;20034;-74
2021/10/17 06:00:42;;;;;;;37.15;14.40;;;;;;;3.30;94.22;101803.88;5029853;28;20057;-73
2021/10/17 06:03:08;;;;;;;36.75;14.00;;;;;;;3.41;94.33;101808.44;5012203;28;20029;-74
2021/10/17 06:06:00;;;;;;;40.03;14.20;;;;;;;3.58;93.70;101811.78;5011228;28;20410;-74
2021/10/17 06:08:25;;;;;;;28.43;12.47;;;;;;;3.45;93.65;101809.09;5011170;28;20546;-74
2021/10/17 06:10:52;;;;;;;35.10;13.18;;;;;;;3.40;93.73;101811.88;5010007;28;20033;-74
2021/10/17 06:13:18;;;;;;;36.97;13.57;;;;;;;3.40;94.05;101809.31;5005743;28;20443;-74
2021/10/17 06:15:43;;;;;;;34.85;13.90;;;;;;;3.40;94.20;101806.75;5020610;28;20030;-74
2021/10/17 06:18:09;;;;;;;33.97;12.80;;;;;;;3.38;94.72;101813.72;5006613;28;20399;-74
2021/10/17 06:20:35;;;;;;;25.30;12.45;;;;;;;3.40;94.51;101836.72;4990307;28;20033;-74
2021/10/17 06:23:03;;;;;;;33.03;13.95;;;;;;;3.47;94.88;101840.59;5026921;28;20734;-74
2021/10/17 06:25:29;;;;;;;38.28;13.63;;;;;;;3.48;94.50;101843.09;5014004;28;20030;-74
2021/10/17 06:27:55;;;;;;;35.83;13.25;;;;;;;3.50;94.94;101840.41;5013953;28;20030;-74
2021/10/17 06:30:22;;;;;;;40.03;14.43;;;;;;;3.53;94.70;101840.25;5007146;28;20092;-74
2021/10/17 06:32:47;;;;;;;33.17;14.50;;;;;;;3.55;94.73;101846.13;5009791;28;20034;-74
2021/10/17 06:35:17;;;;;;;37.22;15.73;;;;;;;3.57;94.41;101857.13;5015684;28;20503;-74
2021/10/17 06:37:42;;;;;;;36.15;15.18;;;;;;;3.58;94.57;101869.06;5013440;28;20053;-74
2021/10/17 06:40:09;;;;;;;29.75;14.30;;;;;;;3.60;94.95;101882.63;5012294;28;20087;-74
2021/10/17 06:42:34;;;;;;;43.15;13.73;;;;;;;3.68;94.59;101875.31;5009701;28;20351;-74
2021/10/17 06:45:19;;;;;;;31.13;12.90;;;;;;;3.72;94.42;101864.91;5013524;28;20080;-74
2021/10/17 06:47:44;;;;;;;30.70;12.93;;;;;;;3.73;94.55;101871.66;5010648;28;20025;-74
2021/10/17 06:50:10;;;;;;;36.22;14.25;;;;;;;3.84;93.58;101877.03;5012088;28;20029;-74
2021/10/17 06:52:41;;;;;;;52.97;18.60;;;;;;;3.81;93.71;101879.78;5019673;28;20029;-73
2021/10/17 06:55:08;;;;;;;38.90;16.10;;;;;;;3.85;93.49;101884.63;5008479;28;20299;-74
2021/10/17 06:57:33;;;;;;;36.75;14.20;;;;;;;3.90;93.41;101894.66;4991599;28;20544;-74
2021/10/17 07:00:01;;;;;;;26.63;12.50;;;;;;;3.90;93.63;101881.84;5009228;28;20124;-74
2021/10/17 07:02:26;;;;;;;35.55;12.73;;;;;;;3.95;93.93;101884.13;5025045;28;20846;-74
2021/10/17 07:04:52;;;;;;;31.08;12.32;;;;;;;4.02;94.05;101882.88;5008137;28;20037;-74
2021/10/17 07:07:18;;;;;;;32.20;13.52;;;;;;;4.06;93.97;101886.91;5011390;28;20091;-73
2021/10/17 07:09:43;;;;;;;31.08;12.65;;;;;;;4.15;94.34;101885.56;5008138;28;20432;-74
2021/10/17 07:12:18;;;;;;;32.80;12.98;;;;;;;4.22;94.25;101887.69;5003583;28;20109;-74
2021/10/17 07:14:43;;;;;;;32.63;13.18;;;;;;;4.24;94.09;101875.59;4993707;28;20041;-74
2021/10/17 07:17:20;;;;;;;30.70;13.25;;;;;;;4.49;93.21;101882.69;5011134;28;20569;-73
2021/10/17 07:19:46;;;;;;;27.15;13.73;;;;;;;4.49;92.69;101879.31;5004747;28;20037;-74
2021/10/17 07:22:12;;;;;;;32.28;11.90;;;;;;;4.51;92.81;101881.78;5012820;28;20029;-74
2021/10/17 07:24:44;;;;;;;31.75;11.40;;;;;;;4.57;92.71;101884.81;5010188;28;20030;-74
2021/10/17 07:27:12;;;;;;;28.15;11.63;;;;;;;4.63;92.51;101884.47;4997990;28;20095;-73
2021/10/17 07:29:39;;;;;;;31.27;11.95;;;;;;;4.76;92.72;101889.69;5020851;28;20033;-74
2021/10/17 07:32:05;;;;;;;29.13;12.57;;;;;;;4.77;92.23;101887.97;5010871;28;20030;-74
2021/10/17 07:34:31;;;;;;;25.13;12.80;;;;;;;4.79;92.42;101891.25;5006604;28;20072;-74
2021/10/17 07:36:56;;;;;;;31.38;14.90;;;;;;;4.86;92.47;101889.97;5013255;28;20465;-74
2021/10/17 07:39:27;;;;;;;27.30;13.30;;;;;;;4.94;92.70;101895.47;5007613;28;20642;-74
2021/10/17 07:41:54;;;;;;;33.25;13.20;;;;;;;5.05;92.37;101890.50;4992143;28;20132;-74
2021/10/17 07:44:19;;;;;;;34.85;11.18;;;;;;;5.12;92.59;101898.66;5007467;28;20038;-74
2021/10/17 07:46:58;;;;;;;31.25;11.80;;;;;;;5.28;91.30;101896.00;5007739;28;20030;-74
2021/10/17 07:49:27;;;;;;;26.35;12.65;;;;;;;5.33;91.13;101891.41;5003398;28;20095;-74
2021/10/17 07:51:53;;;;;;;33.13;14.68;;;;;;;5.40;91.41;101894.41;5009540;28;20129;-73
2021/10/17 07:54:19;;;;;;;28.65;13.55;;;;;;;5.56;90.91;101895.09;5006098;28;20048;-74
2021/10/17 07:56:45;;;;;;;24.95;11.93;;;;;;;5.74;89.99;101895.66;5007896;28;20034;-75
2021/10/17 07:59:10;;;;;;;19.38;10.20;;;;;;;5.84;88.67;101883.88;5006886;28;20045;-75
2021/10/17 08:01:36;;;;;;;26.52;10.43;;;;;;;5.81;88.65;101893.53;5007390;28;20521;-74
2021/10/17 08:04:20;;;;;;;26.17;11.27;;;;;;;5.91;88.76;101886.06;5007130;28;20092;-75
2021/10/17 08:07:06;;;;;;;21.13;11.07;;;;;;;5.87;88.28;101893.13;5006034;28;20030;-75
2021/10/17 08:09:33;;;;;;;23.50;10.00;;;;;;;5.95;88.87;101898.66;5007908;28;20136;-75
2021/10/17 08:11:59;;;;;;;27.02;10.73;;;;;;;6.08;89.09;101898.69;4998735;28;20029;-75
2021/10/17 08:14:25;;;;;;;27.48;10.70;;;;;;;6.10;88.92;101901.16;4995346;28;20115;-78
2021/10/17 08:16:52;;;;;;;27.80;11.25;;;;;;;6.16;88.13;101903.31;5014449;28;20033;-77
2021/10/17 08:19:20;;;;;;;25.80;10.70;;;;;;;6.29;87.61;101906.78;5010972;28;20032;-77
2021/10/17 08:21:48;;;;;;;26.40;11.98;;;;;;;6.41;86.67;101905.13;5009320;28;20459;-77
2021/10/17 08:24:14;;;;;;;30.92;11.32;;;;;;;6.39;87.02;101899.25;5013400;28;20033;-79
2021/10/17 08:26:43;;;;;;;23.90;10.68;;;;;;;6.49;85.90;101902.88;5013133;28;20685;-77
2021/10/17 08:29:14;;;;;;;28.40;11.88;;;;;;;6.56;85.55;101900.72;5012288;28;20041;-77
2021/10/17 08:31:39;;;;;;;23.92;10.98;;;;;;;6.56;86.22;101898.13;5016277;28;20026;-76
2021/10/17 08:34:09;;;;;;;26.67;10.85;;;;;;;6.77;85.62;101906.16;4990115;28;20483;-76
2021/10/17 08:36:38;;;;;;;24.10;11.07;;;;;;;6.83;84.02;101901.41;5015312;28;20026;-77
2021/10/17 08:39:04;;;;;;;23.15;11.07;;;;;;;6.83;85.50;101900.59;5014944;28;20036;-77
2021/10/17 08:41:49;;;;;;;21.48;10.35;;;;;;;6.95;85.73;101896.34;5004336;28;20030;-77
2021/10/17 08:44:17;;;;;;;29.15;10.77;;;;;;;7.15;83.13;101900.94;5012173;28;20083;-77
2021/10/17 08:46:53;;;;;;;27.92;10.15;;;;;;;7.31;82.36;101897.28;5012180;28;20041;-76
2021/10/17 08:49:22;;;;;;;22.50;10.07;;;;;;;7.45;82.44;101902.31;5017923;28;20038;-77
2021/10/17 08:51:48;;;;;;;28.35;11.23;;;;;;;7.46;81.90;101896.22;5012863;28;20037;-76
2021/10/17 08:54:14;;;;;;;25.70;10.15;;;;;;;7.55;81.27;101894.72;5014982;28;20179;-76
2021/10/17 08:56:47;;;;;;;31.60;10.93;;;;;;;7.63;81.25;101899.34;5014377;28;20029;-77
2021/10/17 08:59:14;;;;;;;24.70;9.80;;;;;;;7.71;81.49;101899.63;5011636;28;20261;-78
2021/10/17 09:01:45;;;;;;;24.50;10.93;;;;;;;7.83;80.16;101900.50;5012086;28;20518;-78
2021/10/17 09:04:14;;;;;;;27.73;9.68;;;;;;;7.76;80.26;101895.78;5017385;28;20494;-77
2021/10/17 09:07:19;;;;;;;24.83;9.70;;;;;;;7.83;81.66;101895.34;4993843;28;20029;-77
2021/10/17 09:10:09;;;;;;;19.95;10.02;;;;;;;8.05;79.91;101894.59;5023538;28;20604;-77
2021/10/17 09:12:37;;;;;;;20.45;11.07;;;;;;;7.96;80.63;101893.50;5016402;28;20025;-77
2021/10/17 09:15:26;;;;;;;27.75;10.30;;;;;;;8.09;79.89;101896.84;5015016;28;20037;-76
2021/10/17 09:18:07;;;;;;;26.15;9.80;;;;;;;8.06;80.47;101904.84;4994996;28;20037;-77
2021/10/17 09:20:50;;;;;;;26.92;11.52;;;;;;;8.05;80.48;101905.75;5031776;28;20430;-76
2021/10/17 09:23:22;;;;;;;25.73;10.32;;;;;;;8.18;80.02;101900.53;5014696;28;20036;-77
2021/10/17 09:25:52;;;;;;;25.00;11.25;;;;;;;8.25;80.11;101896.53;5010762;28;20064;-77
2021/10/17 09:28:22;;;;;;;26.90;10.93;;;;;;;8.41;79.89;101892.81;5013382;28;20349;-77
2021/10/17 09:31:02;;;;;;;20.17;9.80;;;;;;;8.34;80.82;101888.13;5015120;28;20327;-76
2021/10/17 09:33:28;;;;;;;23.67;10.05;;;;;;;8.65;78.99;101887.59;5014877;28;20128;-76
2021/10/17 09:35:54;;;;;;;28.95;10.13;;;;;;;8.64;79.59;101883.34;5000246;28;20183;-77
2021/10/17 09:38:45;;;;;;;26.45;9.85;;;;;;;8.80;79.05;101885.56;4990447;28;20041;-75
2021/10/17 09:41:32;;;;;;;23.88;10.85;;;;;;;8.98;77.90;101893.69;5015265;28;20034;-75
2021/10/17 09:44:00;;;;;;;23.50;10.00;;;;;;;9.07;78.54;101877.44;4997451;28;20059;-75
2021/10/17 09:46:52;;;;;;;23.30;9.80;;;;;;;9.06;78.72;101879.22;5013246;28;20121;-76
2021/10/17 09:49:18;;;;;;;22.20;9.68;;;;;;;9.20;78.29;101874.72;5019793;28;20029;-75
2021/10/17 09:51:44;;;;;;;28.30;10.02;;;;;;;9.28;78.50;101872.34;4999439;28;20033;-77
2021/10/17 09:54:10;;;;;;;15.93;8.73;;;;;;;9.40;77.22;101861.03;5016263;28;20117;-76
2021/10/17 09:56:40;;;;;;;23.40;8.27;;;;;;;9.37;76.58;101861.28;5010583;28;20109;-77
2021/10/17 09:59:11;;;;;;;23.88;8.63;;;;;;;9.54;75.45;101850.38;5012284;28;20447;-76
2021/10/17 10:01:38;;;;;;;21.52;8.60;;;;;;;9.60;75.41;101841.28;5014995;28;20581;-75
2021/10/17 10:04:06;;;;;;;19.83;8.13;;;;;;;9.78;75.45;101845.94;4993035;28;20033;-77
2021/10/17 10:06:33;;;;;;;16.55;8.02;;;;;;;9.83;74.99;101854.16;5013481;28;20025;-75
2021/10/17 10:09:08;;;;;;;22.42;7.50;;;;;;;9.91;74.78;101849.19;5016681;28;20037;-74
2021/10/17 10:11:35;;;;;;;21.70;8.30;;;;;;;10.08;74.69;101843.41;5009394;28;20088;-76
2021/10/17 10:14:03;;;;;;;18.08;7.65;;;;;;;10.23;74.16;101854.28;5011674;28;20041;-75
2021/10/17 10:16:30;;;;;;;20.58;8.10;;;;;;;10.44;73.20;101853.47;5021296;28;20034;-75
2021/10/17 10:19:01;;;;;;;17.73;6.75;;;;;;;10.62;71.73;101846.69;5010778;28;20026;-75
2021/10/17 10:21:28;;;;;;;22.25;8.00;;;;;;;10.67;72.14;101854.09;5015384;28;20506;-76
2021/10/17 10:23:57;;;;;;;21.58;7.13;;;;;;;10.78;72.47;101854.00;5012301;28;20037;-75
2021/10/17 10:26:27;;;;;;;15.60;6.65;;;;;;;10.90;69.52;101852.13;5010000;28;20034;-76
2021/10/17 10:28:55;;;;;;;11.65;6.03;;;;;;;11.10;69.12;101855.59;5003886;28;20029;-76
2021/10/17 10:31:39;;;;;;;14.65;5.35;;;;;;;11.29;66.71;101842.63;5011027;28;20041;-76
2021/10/17 10:34:09;;;;;;;12.15;5.78;;;;;;;11.36;66.38;101840.34;5012324;28;20449;-75
2021/10/17 10:36:44;;;;;;;13.82;4.63;;;;;;;11.52;64.25;101834.59;5012414;28;20073;-76
2021/10/17 10:39:12;;;;;;;12.65;5.10;;;;;;;11.62;64.00;101837.16;5008087;28;20401;-75
2021/10/17 10:42:13;;;;;;;10.13;4.60;;;;;;;11.70;64.53;101834.72;5015659;28;20394;-75
2021/10/17 10:44:41;;;;;;;12.63;4.85;;;;;;;11.79;64.95;101838.25;5010426;28;20068;-75
2021/10/17 10:47:27;;;;;;;9.35;4.65;;;;;;;12.08;63.13;101840.84;5017120;28;20068;-74
2021/10/17 10:49:57;;;;;;;10.65;4.75;;;;;;;12.01;65.45;101844.97;5007126;28;20125;-75
2021/10/17 10:52:23;;;;;;;17.45;4.93;;;;;;;12.08;64.71;101838.25;5004630;28;20038;-75
2021/10/17 10:54:48;;;;;;;14.60;5.18;;;;;;;12.31;64.89;101840.50;5013317;28;20108;-75
2021/10/17 10:57:24;;;;;;;11.38;4.32;;;;;;;12.37;64.37;101851.16;5009408;28;20045;-75
2021/10/17 10:59:58;;;;;;;13.82;4.63;;;;;;;12.53;62.27;101849.75;5011409;28;20104;-74
2021/10/17 11:02:23;;;;;;;13.07;4.60;;;;;;;12.64;62.37;101852.16;5006215;28;20053;-75
2021/10/17 11:04:49;;;;;;;17.35;4.40;;;;;;;12.71;61.15;101850.59;5007656;28;20502;-75
2021/10/17 11:07:27;;;;;;;11.68;3.60;;;;;;;12.60;62.28;101850.78;4990797;28;20028;-75
2021/10/17 11:09:54;;;;;;;12.38;4.45;;;;;;;12.59;63.47;101849.16;5001990;28;20029;-75
2021/10/17 11:12:38;;;;;;;13.27;4.65;;;;;;;12.62;60.34;101851.47;5011721;28;20076;-75
2021/10/17 11:15:03;;;;;;;10.98;3.95;;;;;;;12.66;63.05;101850.25;5007694;28;20080;-75
2021/10/17 11:17:29;;;;;;;12.25;5.13;;;;;;;12.62;62.82;101854.06;5012631;28;20022;-75
2021/10/17 11:19:55;;;;;;;13.10;4.55;;;;;;;12.74;62.60;101849.50;5007528;28;20123;-75
2021/10/17 11:22:21;;;;;;;12.13;3.25;;;;;;;12.63;62.61;101846.13;5007100;28;20482;-75
2021/10/17 11:24:50;;;;;;;6.25;2.88;;;;;;;12.73;60.75;101848.69;5006603;28;20026;-74